sensor_id;sensor_type;location;lat;lon;timestamp;P1;durP1;ratioP1;P2;durP2;ratioP2
28481;SDS011;15703;49.588;6.260;2023-12-22T00:00:27;7.20;;;2.43;;
28481;SDS011;15703;49.588;6.260;2023-12-22T00:02:50;5.93;;;2.03;;
28481;SDS011;15703;49.588;6.260;2023-12-22T00:05:12;5.93;;;2.37;;
28481;SDS011;15703;49.588;6.260;2023-12-22T00:07:36;6.93;;;2.97;;
28481;SDS011;15703;49.588;6.260;2023-12-22T00:09:59;6.80;;;2.20;;
28481;SDS011;15703;49.588;6.260;2023-12-22T00:12:21;6.93;;;2.67;;
28481;SDS011;15703;49.588;6.260;2023-12-22T00:14:44;5.90;;;2.33;;
28481;SDS011;15703;49.588;6.260;2023-12-22T00:17:06;5.97;;;2.10;;
28481;SDS011;15703;49.588;6.260;2023-12-22T00:19:29;8.83;;;2.53;;
28481;SDS011;15703;49.588;6.260;2023-12-22T00:21:51;6.87;;;3.00;;
28481;SDS011;15703;49.588;6.260;2023-12-22T00:24:14;4.90;;;2.30;;
28481;SDS011;15703;49.588;6.260;2023-12-22T00:26:36;8.07;;;2.30;;
28481;SDS011;15703;49.588;6.260;2023-12-22T00:28:58;3.87;;;2.10;;
28481;SDS011;15703;49.588;6.260;2023-12-22T00:31:21;8.13;;;2.70;;
28481;SDS011;15703;49.588;6.260;2023-12-22T00:33:43;8.30;;;2.43;;
28481;SDS011;15703;49.588;6.260;2023-12-22T00:36:06;5.47;;;2.60;;
28481;SDS011;15703;49.588;6.260;2023-12-22T00:38:29;10.40;;;3.60;;
28481;SDS011;15703;49.588;6.260;2023-12-22T00:40:52;5.17;;;2.10;;
28481;SDS011;15703;49.588;6.260;2023-12-22T00:43:14;8.70;;;2.13;;
28481;SDS011;15703;49.588;6.260;2023-12-22T00:45:37;10.00;;;2.53;;
28481;SDS011;15703;49.588;6.260;2023-12-22T00:47:59;7.63;;;2.20;;
28481;SDS011;15703;49.588;6.260;2023-12-22T00:50:21;9.67;;;2.70;;
28481;SDS011;15703;49.588;6.260;2023-12-22T00:52:44;12.77;;;2.40;;
28481;SDS011;15703;49.588;6.260;2023-12-22T00:55:06;9.90;;;1.93;;
28481;SDS011;15703;49.588;6.260;2023-12-22T00:57:28;6.70;;;2.57;;
28481;SDS011;15703;49.588;6.260;2023-12-22T00:59:52;5.37;;;2.57;;
28481;SDS011;15703;49.588;6.260;2023-12-22T01:02:15;10.83;;;3.00;;
28481;SDS011;15703;49.588;6.260;2023-12-22T01:04:41;6.93;;;2.70;;
28481;SDS011;15703;49.588;6.260;2023-12-22T01:07:04;7.07;;;2.60;;
28481;SDS011;15703;49.588;6.260;2023-12-22T01:09:26;8.20;;;2.20;;
28481;SDS011;15703;49.588;6.260;2023-12-22T01:11:49;6.30;;;2.50;;
28481;SDS011;15703;49.588;6.260;2023-12-22T01:14:11;7.90;;;2.60;;
28481;SDS011;15703;49.588;6.260;2023-12-22T01:16:36;10.67;;;2.33;;
28481;SDS011;15703;49.588;6.260;2023-12-22T01:18:59;4.63;;;2.17;;
28481;SDS011;15703;49.588;6.260;2023-12-22T01:21:22;6.27;;;2.73;;
28481;SDS011;15703;49.588;6.260;2023-12-22T01:23:44;8.27;;;2.90;;
28481;SDS011;15703;49.588;6.260;2023-12-22T01:26:07;6.87;;;2.50;;
28481;SDS011;15703;49.588;6.260;2023-12-22T01:28:29;7.00;;;2.50;;
28481;SDS011;15703;49.588;6.260;2023-12-22T01:30:51;5.93;;;2.20;;
28481;SDS011;15703;49.588;6.260;2023-12-22T01:33:14;8.73;;;3.20;;
28481;SDS011;15703;49.588;6.260;2023-12-22T01:35:37;7.03;;;2.37;;
28481;SDS011;15703;49.588;6.260;2023-12-22T01:38:01;5.27;;;2.33;;
28481;SDS011;15703;49.588;6.260;2023-12-22T01:40:23;8.73;;;2.57;;
28481;SDS011;15703;49.588;6.260;2023-12-22T01:42:46;9.33;;;2.53;;
28481;SDS011;15703;49.588;6.260;2023-12-22T01:45:09;11.60;;;2.77;;
28481;SDS011;15703;49.588;6.260;2023-12-22T01:47:32;5.80;;;2.70;;
28481;SDS011;15703;49.588;6.260;2023-12-22T01:49:55;9.83;;;3.20;;
28481;SDS011;15703;49.588;6.260;2023-12-22T01:52:17;8.53;;;3.40;;
28481;SDS011;15703;49.588;6.260;2023-12-22T01:54:42;7.57;;;2.60;;
28481;SDS011;15703;49.588;6.260;2023-12-22T01:57:04;7.60;;;2.63;;
28481;SDS011;15703;49.588;6.260;2023-12-22T01:59:27;8.17;;;2.70;;
28481;SDS011;15703;49.588;6.260;2023-12-22T02:01:52;7.10;;;3.20;;
28481;SDS011;15703;49.588;6.260;2023-12-22T02:04:17;8.47;;;2.67;;
28481;SDS011;15703;49.588;6.260;2023-12-22T02:06:40;7.33;;;2.53;;
28481;SDS011;15703;49.588;6.260;2023-12-22T02:11:31;7.27;;;2.33;;
28481;SDS011;15703;49.588;6.260;2023-12-22T02:13:53;7.43;;;2.30;;
28481;SDS011;15703;49.588;6.260;2023-12-22T02:18:52;6.40;;;2.43;;
28481;SDS011;15703;49.588;6.260;2023-12-22T02:21:17;4.97;;;2.20;;
28481;SDS011;15703;49.588;6.260;2023-12-22T02:23:39;4.07;;;2.03;;
28481;SDS011;15703;49.588;6.260;2023-12-22T02:26:06;6.00;;;2.07;;
28481;SDS011;15703;49.588;6.260;2023-12-22T02:28:30;4.90;;;2.20;;
28481;SDS011;15703;49.588;6.260;2023-12-22T02:31:02;6.60;;;2.97;;
28481;SDS011;15703;49.588;6.260;2023-12-22T02:33:26;5.57;;;2.30;;
28481;SDS011;15703;49.588;6.260;2023-12-22T02:35:50;6.67;;;1.97;;
28481;SDS011;15703;49.588;6.260;2023-12-22T02:38:14;5.47;;;2.07;;
28481;SDS011;15703;49.588;6.260;2023-12-22T02:40:39;5.77;;;2.03;;
28481;SDS011;15703;49.588;6.260;2023-12-22T02:43:02;3.97;;;2.17;;
28481;SDS011;15703;49.588;6.260;2023-12-22T02:45:35;4.37;;;1.80;;
28481;SDS011;15703;49.588;6.260;2023-12-22T02:47:57;5.77;;;1.90;;
28481;SDS011;15703;49.588;6.260;2023-12-22T02:50:23;4.63;;;2.10;;
28481;SDS011;15703;49.588;6.260;2023-12-22T02:52:45;2.90;;;2.17;;
28481;SDS011;15703;49.588;6.260;2023-12-22T02:55:08;4.23;;;2.20;;
28481;SDS011;15703;49.588;6.260;2023-12-22T02:57:30;5.47;;;2.37;;
28481;SDS011;15703;49.588;6.260;2023-12-22T02:59:53;7.53;;;2.40;;
28481;SDS011;15703;49.588;6.260;2023-12-22T03:02:15;8.93;;;2.37;;
28481;SDS011;15703;49.588;6.260;2023-12-22T03:04:37;8.53;;;3.10;;
28481;SDS011;15703;49.588;6.260;2023-12-22T03:07:00;10.57;;;3.00;;
28481;SDS011;15703;49.588;6.260;2023-12-22T03:09:22;11.33;;;3.17;;
28481;SDS011;15703;49.588;6.260;2023-12-22T03:11:44;14.63;;;3.57;;
28481;SDS011;15703;49.588;6.260;2023-12-22T03:14:09;10.60;;;3.27;;
28481;SDS011;15703;49.588;6.260;2023-12-22T03:16:31;9.87;;;3.30;;
28481;SDS011;15703;49.588;6.260;2023-12-22T03:18:54;9.73;;;2.57;;
28481;SDS011;15703;49.588;6.260;2023-12-22T03:21:18;14.97;;;4.57;;
28481;SDS011;15703;49.588;6.260;2023-12-22T03:23:41;12.27;;;4.03;;
28481;SDS011;15703;49.588;6.260;2023-12-22T03:26:04;11.40;;;3.67;;
28481;SDS011;15703;49.588;6.260;2023-12-22T03:28:26;16.50;;;4.33;;
28481;SDS011;15703;49.588;6.260;2023-12-22T03:30:49;16.67;;;4.03;;
28481;SDS011;15703;49.588;6.260;2023-12-22T03:33:12;11.07;;;3.43;;
28481;SDS011;15703;49.588;6.260;2023-12-22T03:35:34;10.90;;;3.30;;
28481;SDS011;15703;49.588;6.260;2023-12-22T03:37:56;10.17;;;2.93;;
28481;SDS011;15703;49.588;6.260;2023-12-22T03:40:19;12.93;;;4.13;;
28481;SDS011;15703;49.588;6.260;2023-12-22T03:42:41;15.60;;;3.83;;
28481;SDS011;15703;49.588;6.260;2023-12-22T03:45:04;13.47;;;3.43;;
28481;SDS011;15703;49.588;6.260;2023-12-22T03:47:26;10.70;;;3.00;;
28481;SDS011;15703;49.588;6.260;2023-12-22T03:49:48;11.27;;;3.77;;
28481;SDS011;15703;49.588;6.260;2023-12-22T03:52:12;10.10;;;3.20;;
28481;SDS011;15703;49.588;6.260;2023-12-22T03:54:35;10.37;;;3.23;;
28481;SDS011;15703;49.588;6.260;2023-12-22T03:56:58;11.60;;;3.80;;
28481;SDS011;15703;49.588;6.260;2023-12-22T03:59:20;10.07;;;3.23;;
28481;SDS011;15703;49.588;6.260;2023-12-22T04:01:42;9.63;;;3.53;;
28481;SDS011;15703;49.588;6.260;2023-12-22T04:04:05;14.00;;;3.87;;
28481;SDS011;15703;49.588;6.260;2023-12-22T04:06:27;11.50;;;3.77;;
28481;SDS011;15703;49.588;6.260;2023-12-22T04:08:51;12.00;;;3.57;;
28481;SDS011;15703;49.588;6.260;2023-12-22T04:11:14;15.13;;;3.73;;
28481;SDS011;15703;49.588;6.260;2023-12-22T04:13:37;12.17;;;3.73;;
28481;SDS011;15703;49.588;6.260;2023-12-22T04:15:59;14.00;;;3.90;;
28481;SDS011;15703;49.588;6.260;2023-12-22T04:18:23;14.00;;;3.93;;
28481;SDS011;15703;49.588;6.260;2023-12-22T04:20:48;18.33;;;4.10;;
28481;SDS011;15703;49.588;6.260;2023-12-22T04:23:15;12.50;;;4.20;;
28481;SDS011;15703;49.588;6.260;2023-12-22T04:25:38;18.63;;;4.23;;
28481;SDS011;15703;49.588;6.260;2023-12-22T04:28:03;14.37;;;3.53;;
28481;SDS011;15703;49.588;6.260;2023-12-22T04:30:29;21.07;;;4.80;;
28481;SDS011;15703;49.588;6.260;2023-12-22T04:32:55;14.43;;;4.33;;
28481;SDS011;15703;49.588;6.260;2023-12-22T04:35:18;21.50;;;4.70;;
28481;SDS011;15703;49.588;6.260;2023-12-22T04:37:40;14.80;;;4.20;;
28481;SDS011;15703;49.588;6.260;2023-12-22T04:40:06;13.50;;;4.77;;
28481;SDS011;15703;49.588;6.260;2023-12-22T04:42:31;15.67;;;3.60;;
28481;SDS011;15703;49.588;6.260;2023-12-22T04:44:55;16.10;;;4.00;;
28481;SDS011;15703;49.588;6.260;2023-12-22T04:47:17;13.33;;;4.20;;
28481;SDS011;15703;49.588;6.260;2023-12-22T04:49:49;11.40;;;4.03;;
28481;SDS011;15703;49.588;6.260;2023-12-22T04:52:14;10.43;;;3.43;;
28481;SDS011;15703;49.588;6.260;2023-12-22T04:54:40;19.37;;;3.87;;
28481;SDS011;15703;49.588;6.260;2023-12-22T04:57:02;15.23;;;3.73;;
28481;SDS011;15703;49.588;6.260;2023-12-22T04:59:26;16.03;;;4.10;;
28481;SDS011;15703;49.588;6.260;2023-12-22T05:01:49;21.80;;;4.20;;
28481;SDS011;15703;49.588;6.260;2023-12-22T05:04:11;12.93;;;3.50;;
28481;SDS011;15703;49.588;6.260;2023-12-22T05:06:33;15.27;;;3.87;;
28481;SDS011;15703;49.588;6.260;2023-12-22T05:08:56;14.70;;;3.90;;
28481;SDS011;15703;49.588;6.260;2023-12-22T05:11:25;12.93;;;3.10;;
28481;SDS011;15703;49.588;6.260;2023-12-22T05:13:48;14.73;;;3.63;;
28481;SDS011;15703;49.588;6.260;2023-12-22T05:16:10;14.13;;;3.47;;
28481;SDS011;15703;49.588;6.260;2023-12-22T05:18:33;9.27;;;3.30;;
28481;SDS011;15703;49.588;6.260;2023-12-22T05:20:58;10.00;;;2.90;;
28481;SDS011;15703;49.588;6.260;2023-12-22T05:23:20;10.40;;;3.07;;
28481;SDS011;15703;49.588;6.260;2023-12-22T05:25:43;10.03;;;3.67;;
28481;SDS011;15703;49.588;6.260;2023-12-22T05:28:29;8.07;;;3.23;;
28481;SDS011;15703;49.588;6.260;2023-12-22T05:32:11;10.77;;;3.07;;
28481;SDS011;15703;49.588;6.260;2023-12-22T05:42:41;10.20;;;3.40;;
28481;SDS011;15703;49.588;6.260;2023-12-22T05:46:40;10.10;;;3.50;;
28481;SDS011;15703;49.588;6.260;2023-12-22T05:49:54;22.87;;;4.60;;
28481;SDS011;15703;49.588;6.260;2023-12-22T05:52:20;14.27;;;3.90;;
28481;SDS011;15703;49.588;6.260;2023-12-22T05:54:44;16.03;;;4.00;;
28481;SDS011;15703;49.588;6.260;2023-12-22T05:57:07;15.00;;;4.03;;
28481;SDS011;15703;49.588;6.260;2023-12-22T06:00:04;20.83;;;4.53;;
28481;SDS011;15703;49.588;6.260;2023-12-22T06:02:47;16.00;;;3.93;;
28481;SDS011;15703;49.588;6.260;2023-12-22T06:05:10;18.87;;;4.50;;
28481;SDS011;15703;49.588;6.260;2023-12-22T06:07:33;12.47;;;3.60;;
28481;SDS011;15703;49.588;6.260;2023-12-22T06:09:56;19.97;;;4.30;;
28481;SDS011;15703;49.588;6.260;2023-12-22T06:12:22;22.50;;;5.70;;
28481;SDS011;15703;49.588;6.260;2023-12-22T06:14:45;14.60;;;4.63;;
28481;SDS011;15703;49.588;6.260;2023-12-22T06:17:07;19.10;;;4.13;;
28481;SDS011;15703;49.588;6.260;2023-12-22T06:19:29;23.87;;;5.37;;
28481;SDS011;15703;49.588;6.260;2023-12-22T06:21:52;19.30;;;5.13;;
28481;SDS011;15703;49.588;6.260;2023-12-22T06:24:17;16.90;;;4.63;;
28481;SDS011;15703;49.588;6.260;2023-12-22T06:26:40;16.10;;;4.20;;
28481;SDS011;15703;49.588;6.260;2023-12-22T06:29:03;17.27;;;4.70;;
28481;SDS011;15703;49.588;6.260;2023-12-22T06:31:29;16.17;;;4.57;;
28481;SDS011;15703;49.588;6.260;2023-12-22T06:33:52;17.13;;;4.47;;
28481;SDS011;15703;49.588;6.260;2023-12-22T06:36:23;24.13;;;4.90;;
28481;SDS011;15703;49.588;6.260;2023-12-22T06:38:46;19.90;;;4.67;;
28481;SDS011;15703;49.588;6.260;2023-12-22T06:41:17;19.07;;;4.77;;
28481;SDS011;15703;49.588;6.260;2023-12-22T06:43:39;13.67;;;4.07;;
28481;SDS011;15703;49.588;6.260;2023-12-22T06:46:02;18.73;;;4.73;;
28481;SDS011;15703;49.588;6.260;2023-12-22T06:48:24;20.17;;;6.00;;
28481;SDS011;15703;49.588;6.260;2023-12-22T06:50:50;19.57;;;5.60;;
28481;SDS011;15703;49.588;6.260;2023-12-22T06:53:13;18.60;;;5.53;;
28481;SDS011;15703;49.588;6.260;2023-12-22T06:55:46;19.97;;;4.27;;
28481;SDS011;15703;49.588;6.260;2023-12-22T06:58:08;17.63;;;5.27;;
28481;SDS011;15703;49.588;6.260;2023-12-22T07:00:31;20.10;;;4.87;;
28481;SDS011;15703;49.588;6.260;2023-12-22T07:02:53;16.67;;;5.30;;
28481;SDS011;15703;49.588;6.260;2023-12-22T07:07:44;17.73;;;5.03;;
28481;SDS011;15703;49.588;6.260;2023-12-22T07:10:06;21.90;;;4.87;;
28481;SDS011;15703;49.588;6.260;2023-12-22T07:12:28;16.07;;;4.80;;
28481;SDS011;15703;49.588;6.260;2023-12-22T07:14:53;20.03;;;4.33;;
28481;SDS011;15703;49.588;6.260;2023-12-22T07:17:16;24.33;;;5.13;;
28481;SDS011;15703;49.588;6.260;2023-12-22T07:19:38;19.33;;;4.70;;
28481;SDS011;15703;49.588;6.260;2023-12-22T07:22:00;24.43;;;5.40;;
28481;SDS011;15703;49.588;6.260;2023-12-22T07:24:26;14.80;;;4.17;;
28481;SDS011;15703;49.588;6.260;2023-12-22T07:26:51;20.87;;;5.33;;
28481;SDS011;15703;49.588;6.260;2023-12-22T07:29:15;17.17;;;4.60;;
28481;SDS011;15703;49.588;6.260;2023-12-22T07:31:38;19.83;;;5.03;;
28481;SDS011;15703;49.588;6.260;2023-12-22T07:34:00;22.37;;;4.37;;
28481;SDS011;15703;49.588;6.260;2023-12-22T07:36:22;18.57;;;4.77;;
28481;SDS011;15703;49.588;6.260;2023-12-22T07:38:45;26.40;;;5.87;;
28481;SDS011;15703;49.588;6.260;2023-12-22T07:41:07;23.70;;;5.47;;
28481;SDS011;15703;49.588;6.260;2023-12-22T07:43:32;14.77;;;4.50;;
28481;SDS011;15703;49.588;6.260;2023-12-22T07:45:56;19.30;;;5.03;;
28481;SDS011;15703;49.588;6.260;2023-12-22T07:48:19;20.53;;;5.30;;
28481;SDS011;15703;49.588;6.260;2023-12-22T07:50:41;17.77;;;4.70;;
28481;SDS011;15703;49.588;6.260;2023-12-22T07:53:04;23.07;;;6.17;;
28481;SDS011;15703;49.588;6.260;2023-12-22T07:55:29;21.90;;;4.73;;
28481;SDS011;15703;49.588;6.260;2023-12-22T07:57:51;26.43;;;5.23;;
28481;SDS011;15703;49.588;6.260;2023-12-22T08:00:13;23.10;;;5.70;;
28481;SDS011;15703;49.588;6.260;2023-12-22T08:02:36;17.83;;;5.20;;
28481;SDS011;15703;49.588;6.260;2023-12-22T08:04:58;22.00;;;4.97;;
28481;SDS011;15703;49.588;6.260;2023-12-22T08:07:21;16.30;;;4.73;;
28481;SDS011;15703;49.588;6.260;2023-12-22T08:09:44;20.60;;;4.80;;
28481;SDS011;15703;49.588;6.260;2023-12-22T08:12:06;20.03;;;5.17;;
28481;SDS011;15703;49.588;6.260;2023-12-22T08:14:29;18.07;;;5.27;;
28481;SDS011;15703;49.588;6.260;2023-12-22T08:16:51;17.53;;;4.23;;
28481;SDS011;15703;49.588;6.260;2023-12-22T08:19:14;19.87;;;4.97;;
28481;SDS011;15703;49.588;6.260;2023-12-22T08:21:37;19.77;;;4.73;;
28481;SDS011;15703;49.588;6.260;2023-12-22T08:24:06;20.20;;;4.73;;
28481;SDS011;15703;49.588;6.260;2023-12-22T08:26:32;16.10;;;4.20;;
28481;SDS011;15703;49.588;6.260;2023-12-22T08:28:55;18.20;;;5.00;;
28481;SDS011;15703;49.588;6.260;2023-12-22T08:31:17;19.47;;;4.53;;
28481;SDS011;15703;49.588;6.260;2023-12-22T08:33:40;18.33;;;5.00;;
28481;SDS011;15703;49.588;6.260;2023-12-22T08:36:05;16.23;;;5.13;;
28481;SDS011;15703;49.588;6.260;2023-12-22T08:38:27;20.37;;;4.73;;
28481;SDS011;15703;49.588;6.260;2023-12-22T08:40:50;18.33;;;4.40;;
28481;SDS011;15703;49.588;6.260;2023-12-22T08:43:14;12.20;;;4.13;;
28481;SDS011;15703;49.588;6.260;2023-12-22T08:45:38;17.73;;;4.10;;
28481;SDS011;15703;49.588;6.260;2023-12-22T08:51:36;17.43;;;4.40;;
28481;SDS011;15703;49.588;6.260;2023-12-22T08:54:04;16.47;;;3.13;;
28481;SDS011;15703;49.588;6.260;2023-12-22T08:56:32;15.23;;;4.20;;
28481;SDS011;15703;49.588;6.260;2023-12-22T08:58:58;13.20;;;3.97;;
28481;SDS011;15703;49.588;6.260;2023-12-22T09:01:25;13.43;;;3.73;;
28481;SDS011;15703;49.588;6.260;2023-12-22T09:04:33;16.67;;;3.87;;
28481;SDS011;15703;49.588;6.260;2023-12-22T09:06:57;10.67;;;3.40;;
28481;SDS011;15703;49.588;6.260;2023-12-22T09:09:20;13.20;;;3.53;;
28481;SDS011;15703;49.588;6.260;2023-12-22T09:11:45;16.80;;;3.97;;
28481;SDS011;15703;49.588;6.260;2023-12-22T09:14:07;10.53;;;3.57;;
28481;SDS011;15703;49.588;6.260;2023-12-22T09:16:39;9.33;;;3.03;;
28481;SDS011;15703;49.588;6.260;2023-12-22T09:19:06;12.60;;;3.50;;
28481;SDS011;15703;49.588;6.260;2023-12-22T09:21:29;12.53;;;2.60;;
28481;SDS011;15703;49.588;6.260;2023-12-22T09:26:18;12.13;;;3.00;;
28481;SDS011;15703;49.588;6.260;2023-12-22T09:28:40;10.73;;;3.17;;
28481;SDS011;15703;49.588;6.260;2023-12-22T09:31:06;9.40;;;2.63;;
28481;SDS011;15703;49.588;6.260;2023-12-22T09:33:29;7.73;;;2.23;;
28481;SDS011;15703;49.588;6.260;2023-12-22T09:35:57;11.50;;;3.57;;
28481;SDS011;15703;49.588;6.260;2023-12-22T09:38:34;9.90;;;2.67;;
28481;SDS011;15703;49.588;6.260;2023-12-22T09:41:01;11.50;;;2.47;;
28481;SDS011;15703;49.588;6.260;2023-12-22T09:43:54;6.93;;;2.60;;
28481;SDS011;15703;49.588;6.260;2023-12-22T09:46:20;8.77;;;2.27;;
28481;SDS011;15703;49.588;6.260;2023-12-22T09:48:47;6.73;;;2.60;;
28481;SDS011;15703;49.588;6.260;2023-12-22T09:58:18;3.57;;;1.90;;
28481;SDS011;15703;49.588;6.260;2023-12-22T10:00:50;6.63;;;1.90;;
28481;SDS011;15703;49.588;6.260;2023-12-22T10:03:13;4.97;;;1.90;;
28481;SDS011;15703;49.588;6.260;2023-12-22T10:05:41;5.37;;;1.70;;
28481;SDS011;15703;49.588;6.260;2023-12-22T10:08:11;2.40;;;1.70;;
28481;SDS011;15703;49.588;6.260;2023-12-22T10:10:41;7.03;;;2.07;;
28481;SDS011;15703;49.588;6.260;2023-12-22T10:13:04;4.63;;;1.90;;
28481;SDS011;15703;49.588;6.260;2023-12-22T10:18:46;3.50;;;1.77;;
28481;SDS011;15703;49.588;6.260;2023-12-22T10:21:12;2.83;;;1.60;;
28481;SDS011;15703;49.588;6.260;2023-12-22T10:24:38;2.20;;;1.60;;
28481;SDS011;15703;49.588;6.260;2023-12-22T10:28:12;4.03;;;1.60;;
28481;SDS011;15703;49.588;6.260;2023-12-22T11:01:43;1.07;;;1.00;;
28481;SDS011;15703;49.588;6.260;2023-12-22T11:04:36;1.20;;;1.20;;
28481;SDS011;15703;49.588;6.260;2023-12-22T11:07:03;2.77;;;1.10;;
28481;SDS011;15703;49.588;6.260;2023-12-22T11:09:26;1.00;;;0.93;;
28481;SDS011;15703;49.588;6.260;2023-12-22T11:12:03;1.20;;;1.10;;
28481;SDS011;15703;49.588;6.260;2023-12-22T11:14:48;1.43;;;1.07;;
28481;SDS011;15703;49.588;6.260;2023-12-22T11:17:19;1.40;;;1.20;;
28481;SDS011;15703;49.588;6.260;2023-12-22T11:19:42;1.87;;;1.20;;
28481;SDS011;15703;49.588;6.260;2023-12-22T11:22:08;1.33;;;1.27;;
28481;SDS011;15703;49.588;6.260;2023-12-22T11:24:32;1.87;;;1.10;;
28481;SDS011;15703;49.588;6.260;2023-12-22T11:27:11;1.27;;;1.17;;
28481;SDS011;15703;49.588;6.260;2023-12-22T11:29:35;1.30;;;1.20;;
28481;SDS011;15703;49.588;6.260;2023-12-22T11:32:01;1.90;;;1.30;;
28481;SDS011;15703;49.588;6.260;2023-12-22T11:35:14;1.80;;;1.20;;
28481;SDS011;15703;49.588;6.260;2023-12-22T11:37:43;5.03;;;1.77;;
28481;SDS011;15703;49.588;6.260;2023-12-22T11:44:45;2.93;;;1.27;;
28481;SDS011;15703;49.588;6.260;2023-12-22T11:47:21;2.87;;;1.80;;
28481;SDS011;15703;49.588;6.260;2023-12-22T11:57:35;3.70;;;1.37;;
28481;SDS011;15703;49.588;6.260;2023-12-22T12:00:09;1.33;;;1.23;;
28481;SDS011;15703;49.588;6.260;2023-12-22T12:13:26;2.43;;;1.10;;
28481;SDS011;15703;49.588;6.260;2023-12-22T12:16:25;2.40;;;1.23;;
28481;SDS011;15703;49.588;6.260;2023-12-22T12:20:10;2.20;;;1.20;;
28481;SDS011;15703;49.588;6.260;2023-12-22T12:22:34;2.77;;;1.40;;
28481;SDS011;15703;49.588;6.260;2023-12-22T12:25:00;1.00;;;0.90;;
28481;SDS011;15703;49.588;6.260;2023-12-22T12:27:49;4.50;;;1.17;;
28481;SDS011;15703;49.588;6.260;2023-12-22T12:34:12;0.93;;;0.93;;
28481;SDS011;15703;49.588;6.260;2023-12-22T12:36:32;1.07;;;1.00;;
28481;SDS011;15703;49.588;6.260;2023-12-22T12:39:01;1.37;;;0.90;;
28481;SDS011;15703;49.588;6.260;2023-12-22T12:41:40;1.20;;;1.00;;
28481;SDS011;15703;49.588;6.260;2023-12-22T12:44:32;2.13;;;1.20;;
28481;SDS011;15703;49.588;6.260;2023-12-22T12:48:05;1.13;;;1.03;;
28481;SDS011;15703;49.588;6.260;2023-12-22T12:51:23;1.93;;;1.20;;
28481;SDS011;15703;49.588;6.260;2023-12-22T13:01:50;2.07;;;1.20;;
28481;SDS011;15703;49.588;6.260;2023-12-22T13:08:38;1.10;;;1.00;;
28481;SDS011;15703;49.588;6.260;2023-12-22T13:19:43;1.33;;;1.13;;
28481;SDS011;15703;49.588;6.260;2023-12-22T13:41:39;2.17;;;1.20;;
28481;SDS011;15703;49.588;6.260;2023-12-22T13:46:04;1.63;;;1.30;;
28481;SDS011;15703;49.588;6.260;2023-12-22T14:03:50;1.10;;;1.00;;
28481;SDS011;15703;49.588;6.260;2023-12-22T14:06:47;2.70;;;1.00;;
28481;SDS011;15703;49.588;6.260;2023-12-22T14:09:09;1.43;;;1.10;;
28481;SDS011;15703;49.588;6.260;2023-12-22T14:12:09;2.70;;;1.10;;
28481;SDS011;15703;49.588;6.260;2023-12-22T14:15:27;1.47;;;1.00;;
28481;SDS011;15703;49.588;6.260;2023-12-22T14:18:08;1.33;;;0.97;;
28481;SDS011;15703;49.588;6.260;2023-12-22T14:20:31;1.10;;;1.00;;
28481;SDS011;15703;49.588;6.260;2023-12-22T14:42:10;1.60;;;1.13;;
28481;SDS011;15703;49.588;6.260;2023-12-22T15:57:30;2.60;;;1.20;;
28481;SDS011;15703;49.588;6.260;2023-12-22T17:07:34;8.33;;;4.87;;
28481;SDS011;15703;49.588;6.260;2023-12-22T17:25:15;2.90;;;1.47;;
28481;SDS011;15703;49.588;6.260;2023-12-22T17:31:51;2.00;;;1.43;;
28481;SDS011;15703;49.588;6.260;2023-12-22T17:34:29;1.87;;;1.50;;
28481;SDS011;15703;49.588;6.260;2023-12-22T17:52:25;2.20;;;1.60;;
28481;SDS011;15703;49.588;6.260;2023-12-22T18:01:22;3.13;;;1.80;;
28481;SDS011;15703;49.588;6.260;2023-12-22T18:03:45;4.87;;;1.47;;
28481;SDS011;15703;49.588;6.260;2023-12-22T18:06:16;2.20;;;1.70;;
28481;SDS011;15703;49.588;6.260;2023-12-22T18:09:04;2.30;;;1.37;;
28481;SDS011;15703;49.588;6.260;2023-12-22T18:11:31;2.33;;;1.40;;
28481;SDS011;15703;49.588;6.260;2023-12-22T18:13:58;1.77;;;1.60;;
28481;SDS011;15703;49.588;6.260;2023-12-22T18:17:09;3.30;;;1.83;;
28481;SDS011;15703;49.588;6.260;2023-12-22T18:19:31;4.33;;;1.60;;
28481;SDS011;15703;49.588;6.260;2023-12-22T18:21:54;4.70;;;1.73;;
28481;SDS011;15703;49.588;6.260;2023-12-22T18:24:19;4.63;;;2.00;;
28481;SDS011;15703;49.588;6.260;2023-12-22T18:30:08;6.00;;;2.57;;
28481;SDS011;15703;49.588;6.260;2023-12-22T18:32:31;4.03;;;2.17;;
28481;SDS011;15703;49.588;6.260;2023-12-22T18:34:59;5.00;;;2.00;;
28481;SDS011;15703;49.588;6.260;2023-12-22T18:37:22;5.37;;;1.83;;
28481;SDS011;15703;49.588;6.260;2023-12-22T18:39:44;3.23;;;1.70;;
28481;SDS011;15703;49.588;6.260;2023-12-22T18:45:14;4.50;;;2.40;;
28481;SDS011;15703;49.588;6.260;2023-12-22T18:47:37;5.47;;;2.37;;
28481;SDS011;15703;49.588;6.260;2023-12-22T18:50:00;4.00;;;1.87;;
28481;SDS011;15703;49.588;6.260;2023-12-22T18:58:57;4.77;;;2.30;;
28481;SDS011;15703;49.588;6.260;2023-12-22T19:02:11;6.50;;;2.33;;
28481;SDS011;15703;49.588;6.260;2023-12-22T19:05:17;6.93;;;3.13;;
28481;SDS011;15703;49.588;6.260;2023-12-22T19:16:05;6.20;;;2.30;;
28481;SDS011;15703;49.588;6.260;2023-12-22T19:18:34;3.93;;;2.30;;
28481;SDS011;15703;49.588;6.260;2023-12-22T19:21:45;7.43;;;2.53;;
28481;SDS011;15703;49.588;6.260;2023-12-22T19:24:23;3.20;;;2.00;;
28481;SDS011;15703;49.588;6.260;2023-12-22T19:30:29;9.73;;;2.90;;
28481;SDS011;15703;49.588;6.260;2023-12-22T19:36:43;10.50;;;2.63;;
28481;SDS011;15703;49.588;6.260;2023-12-22T19:39:53;8.47;;;2.33;;
28481;SDS011;15703;49.588;6.260;2023-12-22T19:46:40;8.20;;;2.67;;
28481;SDS011;15703;49.588;6.260;2023-12-22T19:49:07;6.87;;;2.27;;
28481;SDS011;15703;49.588;6.260;2023-12-22T19:51:33;8.33;;;2.33;;
28481;SDS011;15703;49.588;6.260;2023-12-22T19:58:28;9.33;;;2.50;;
28481;SDS011;15703;49.588;6.260;2023-12-22T20:01:30;5.67;;;2.43;;
28481;SDS011;15703;49.588;6.260;2023-12-22T20:10:55;7.03;;;3.17;;
28481;SDS011;15703;49.588;6.260;2023-12-22T20:13:20;4.90;;;2.33;;
28481;SDS011;15703;49.588;6.260;2023-12-22T20:15:47;10.93;;;2.67;;
28481;SDS011;15703;49.588;6.260;2023-12-22T20:18:10;8.17;;;2.23;;
28481;SDS011;15703;49.588;6.260;2023-12-22T20:20:33;10.63;;;3.13;;
28481;SDS011;15703;49.588;6.260;2023-12-22T20:23:05;8.90;;;4.37;;
28481;SDS011;15703;49.588;6.260;2023-12-22T20:25:47;5.43;;;2.33;;
28481;SDS011;15703;49.588;6.260;2023-12-22T20:30:59;7.33;;;2.47;;
28481;SDS011;15703;49.588;6.260;2023-12-22T20:33:29;6.60;;;2.63;;
28481;SDS011;15703;49.588;6.260;2023-12-22T20:35:52;5.27;;;2.10;;
28481;SDS011;15703;49.588;6.260;2023-12-22T20:38:17;7.37;;;2.50;;
28481;SDS011;15703;49.588;6.260;2023-12-22T20:40:40;9.83;;;2.43;;
28481;SDS011;15703;49.588;6.260;2023-12-22T20:43:04;5.03;;;2.20;;
28481;SDS011;15703;49.588;6.260;2023-12-22T20:45:30;7.63;;;3.10;;
28481;SDS011;15703;49.588;6.260;2023-12-22T20:47:54;7.53;;;2.80;;
28481;SDS011;15703;49.588;6.260;2023-12-22T20:50:16;9.20;;;2.90;;
28481;SDS011;15703;49.588;6.260;2023-12-22T20:52:39;9.17;;;3.27;;
28481;SDS011;15703;49.588;6.260;2023-12-22T20:55:01;8.53;;;3.10;;
28481;SDS011;15703;49.588;6.260;2023-12-22T20:57:24;9.97;;;3.27;;
28481;SDS011;15703;49.588;6.260;2023-12-22T21:03:57;9.33;;;2.93;;
28481;SDS011;15703;49.588;6.260;2023-12-22T21:06:20;10.23;;;2.73;;
28481;SDS011;15703;49.588;6.260;2023-12-22T21:09:24;10.57;;;3.20;;
28481;SDS011;15703;49.588;6.260;2023-12-22T21:11:54;11.13;;;2.80;;
28481;SDS011;15703;49.588;6.260;2023-12-22T21:17:54;10.20;;;2.60;;
28481;SDS011;15703;49.588;6.260;2023-12-22T21:20:18;12.17;;;3.53;;
28481;SDS011;15703;49.588;6.260;2023-12-22T21:22:42;8.73;;;3.27;;
28481;SDS011;15703;49.588;6.260;2023-12-22T21:25:10;9.83;;;2.97;;
28481;SDS011;15703;49.588;6.260;2023-12-22T21:28:23;8.50;;;2.70;;
28481;SDS011;15703;49.588;6.260;2023-12-22T21:31:05;9.13;;;4.00;;